createdAt,value
2017-12-08T00:01:04.163Z,92.90
2017-12-08T00:03:31.832Z,91.96
2017-12-08T00:05:59.376Z,91.75
2017-12-08T00:08:26.924Z,92.39
2017-12-08T00:10:54.478Z,93.28
2017-12-08T00:13:22.031Z,93.22
2017-12-08T00:15:49.588Z,93.17
2017-12-08T00:18:17.147Z,93.60
2017-12-08T00:20:44.762Z,94.01
2017-12-08T00:23:12.316Z,93.76
2017-12-08T00:25:39.869Z,94.11
2017-12-08T00:28:07.412Z,94.31
2017-12-08T00:30:34.967Z,93.91
2017-12-08T00:33:02.527Z,93.48
2017-12-08T00:35:30.076Z,93.34
2017-12-08T00:37:58.406Z,94.08
2017-12-08T00:40:26.715Z,93.42
2017-12-08T00:42:54.264Z,93.32
2017-12-08T00:45:21.816Z,93.28
2017-12-08T00:47:49.368Z,94.05
2017-12-08T00:50:16.919Z,93.76
2017-12-08T00:52:45.413Z,94.05
2017-12-08T00:55:12.969Z,93.77
2017-12-08T00:57:40.518Z,94.08
2017-12-08T01:00:08.061Z,94.51
2017-12-08T01:02:35.616Z,95.09
2017-12-08T01:05:03.170Z,94.63
2017-12-08T01:07:30.748Z,94.72
2017-12-08T01:09:58.295Z,95.02
2017-12-08T01:12:25.850Z,94.87
2017-12-08T01:14:53.409Z,94.89
2017-12-08T01:17:20.996Z,94.80
2017-12-08T01:19:48.541Z,95.17
2017-12-08T01:22:16.097Z,94.99
2017-12-08T01:24:43.650Z,95.01
2017-12-08T01:27:11.248Z,95.32
2017-12-08T01:29:38.804Z,95.53
2017-12-08T01:32:06.359Z,95.22
2017-12-08T01:34:34.613Z,95.55
2017-12-08T01:37:02.163Z,95.56
2017-12-08T01:39:29.711Z,95.75
2017-12-08T01:41:58.173Z,95.40
2017-12-08T01:44:25.725Z,94.99
2017-12-08T01:46:53.283Z,94.86
2017-12-08T01:49:20.832Z,94.52
2017-12-08T01:51:48.391Z,94.63
2017-12-08T01:54:15.944Z,94.60
2017-12-08T01:56:44.180Z,94.90
2017-12-08T01:59:11.791Z,94.38
2017-12-08T02:01:39.347Z,94.40
2017-12-08T02:04:07.709Z,94.52
2017-12-08T02:06:35.268Z,94.23
2017-12-08T02:09:02.834Z,93.97
2017-12-08T02:11:30.416Z,94.46
2017-12-08T02:13:57.974Z,93.94
2017-12-08T02:16:25.534Z,94.76
2017-12-08T02:18:53.089Z,93.72
2017-12-08T02:21:20.640Z,93.83
2017-12-08T02:23:48.192Z,93.46
2017-12-08T02:26:15.744Z,93.15
2017-12-08T02:28:43.620Z,93.92
2017-12-08T02:31:11.173Z,93.69
2017-12-08T02:33:38.767Z,93.73
2017-12-08T02:36:06.320Z,93.64
2017-12-08T02:38:33.876Z,93.87
2017-12-08T02:41:01.450Z,94.36
2017-12-08T02:43:29.000Z,94.02
2017-12-08T02:45:56.553Z,94.03
2017-12-08T02:48:24.137Z,93.68
2017-12-08T02:50:51.684Z,93.56
2017-12-08T02:53:19.242Z,93.80
2017-12-08T02:55:46.812Z,93.35
2017-12-08T02:58:14.413Z,93.89
2017-12-08T03:00:41.972Z,93.61
2017-12-08T03:03:09.536Z,93.48
2017-12-08T03:05:37.092Z,93.10
2017-12-08T03:08:04.713Z,93.28
2017-12-08T03:10:32.272Z,92.52
2017-12-08T03:12:59.936Z,92.70
2017-12-08T03:15:27.491Z,92.90
2017-12-08T03:17:55.057Z,93.05
2017-12-08T03:20:22.605Z,92.81
2017-12-08T03:22:50.163Z,92.93
2017-12-08T03:25:17.716Z,92.70
2017-12-08T03:27:45.271Z,92.97
2017-12-08T03:30:12.869Z,93.15
2017-12-08T03:32:40.452Z,93.17
2017-12-08T03:35:08.008Z,92.62
2017-12-08T03:37:35.639Z,93.24
2017-12-08T03:40:03.180Z,92.88
2017-12-08T03:42:30.730Z,93.38
2017-12-08T03:44:58.294Z,92.24
2017-12-08T03:47:25.843Z,92.93
2017-12-08T03:49:53.392Z,92.30
2017-12-08T03:52:20.954Z,92.80
2017-12-08T03:54:48.499Z,92.50
2017-12-08T03:57:16.052Z,93.02
2017-12-08T03:59:43.605Z,92.66
2017-12-08T04:02:11.165Z,92.86
2017-12-08T04:04:38.756Z,92.64
2017-12-08T04:07:06.302Z,93.01
2017-12-08T04:09:33.856Z,93.70
2017-12-08T04:12:02.216Z,93.02
2017-12-08T04:14:30.527Z,92.57
2017-12-08T04:16:58.080Z,92.37
2017-12-08T04:19:25.632Z,91.99
2017-12-08T04:21:53.176Z,92.37
2017-12-08T04:24:21.621Z,92.69
2017-12-08T04:26:49.931Z,92.76
2017-12-08T04:29:18.327Z,92.84
2017-12-08T04:31:45.887Z,92.87
2017-12-08T04:34:13.436Z,92.84
2017-12-08T04:36:41.924Z,93.35
2017-12-08T04:39:10.261Z,93.33
2017-12-08T04:41:38.639Z,93.42
2017-12-08T04:44:06.184Z,93.12
2017-12-08T04:46:33.731Z,93.00
2017-12-08T04:49:02.092Z,93.18
2017-12-08T04:51:30.536Z,93.46
2017-12-08T04:53:58.884Z,93.64
2017-12-08T04:56:27.318Z,93.48
2017-12-08T04:58:55.757Z,93.57
2017-12-08T05:01:23.304Z,93.80
2017-12-08T05:03:50.852Z,93.86
2017-12-08T05:06:18.403Z,93.86
2017-12-08T05:08:45.956Z,94.00
2017-12-08T05:11:13.501Z,94.45
2017-12-08T05:13:41.053Z,94.11
2017-12-08T05:16:08.596Z,94.08
2017-12-08T05:18:36.140Z,94.02
2017-12-08T05:21:03.688Z,93.92
2017-12-08T05:23:32.080Z,93.90
2017-12-08T05:25:59.628Z,93.84
2017-12-08T05:28:27.176Z,93.94
2017-12-08T05:30:54.726Z,94.25
2017-12-08T05:33:22.282Z,93.47
2017-12-08T05:35:49.836Z,93.41
2017-12-08T05:38:17.442Z,92.93
2017-12-08T05:40:44.987Z,93.04
2017-12-08T05:43:12.533Z,93.07
2017-12-08T05:45:40.124Z,92.72
2017-12-08T05:48:08.584Z,92.58
2017-12-08T05:50:36.134Z,92.77
2017-12-08T05:53:03.691Z,92.73
2017-12-08T05:55:31.323Z,92.97
2017-12-08T05:57:58.876Z,92.97
2017-12-08T06:00:26.420Z,92.72
2017-12-08T06:02:53.969Z,92.14
2017-12-08T06:05:22.385Z,92.22
2017-12-08T06:07:50.843Z,92.22
2017-12-08T06:10:19.149Z,92.20
2017-12-08T06:12:46.697Z,91.71
2017-12-08T06:15:14.244Z,91.77
2017-12-08T06:17:41.787Z,92.09
2017-12-08T06:20:09.333Z,91.89
2017-12-08T06:22:36.887Z,92.46
2017-12-08T06:25:04.440Z,92.14
2017-12-08T06:27:32.020Z,91.24
2017-12-08T06:29:59.573Z,91.82
2017-12-08T06:32:27.196Z,92.47
2017-12-08T06:34:54.748Z,92.08
2017-12-08T06:37:22.300Z,91.23
2017-12-08T06:39:50.743Z,91.09
2017-12-08T06:42:18.296Z,91.39
2017-12-08T06:44:45.847Z,91.50
2017-12-08T06:47:13.478Z,90.82
2017-12-08T06:49:41.040Z,91.03
2017-12-08T06:52:08.584Z,90.68
2017-12-08T06:54:36.128Z,91.27
2017-12-08T06:57:03.729Z,91.30
2017-12-08T06:59:32.103Z,91.82
2017-12-08T07:02:00.552Z,92.10
2017-12-08T07:04:28.107Z,92.26
2017-12-08T07:06:55.658Z,92.10
2017-12-08T07:09:23.211Z,92.13
2017-12-08T07:11:51.523Z,91.99
2017-12-08T07:14:20.028Z,91.90
2017-12-08T07:16:47.684Z,92.32
2017-12-08T07:19:15.228Z,92.58
2017-12-08T07:21:42.812Z,92.57
2017-12-08T07:24:10.473Z,92.65
2017-12-08T07:26:38.015Z,92.62
2017-12-08T07:29:05.597Z,92.54
2017-12-08T07:31:33.254Z,92.72
2017-12-08T07:34:00.840Z,92.87
2017-12-08T07:36:28.476Z,93.26
2017-12-08T07:38:56.046Z,93.57
2017-12-08T07:41:23.595Z,93.41
2017-12-08T07:43:51.142Z,93.47
2017-12-08T07:46:18.779Z,93.41
2017-12-08T07:48:47.310Z,93.31
2017-12-08T07:51:14.865Z,93.63
2017-12-08T07:53:42.425Z,93.53
2017-12-08T07:56:10.098Z,93.63
2017-12-08T07:58:37.756Z,93.91
2017-12-08T08:01:05.421Z,93.81
2017-12-08T08:03:33.076Z,93.27
2017-12-08T08:06:00.628Z,93.06
2017-12-08T08:08:28.177Z,93.07
2017-12-08T08:10:55.868Z,92.52
2017-12-08T08:13:24.240Z,92.72
2017-12-08T08:15:51.794Z,92.59
2017-12-08T08:18:19.352Z,92.16
2017-12-08T08:20:46.906Z,92.33
2017-12-08T08:23:14.493Z,92.03
2017-12-08T08:25:42.063Z,91.93
2017-12-08T08:28:10.545Z,89.97
2017-12-08T08:30:38.198Z,89.57
2017-12-08T08:33:05.749Z,89.42
2017-12-08T08:35:34.073Z,90.28
2017-12-08T08:38:02.621Z,89.26
2017-12-08T08:40:30.997Z,88.23
2017-12-08T08:42:58.565Z,86.80
2017-12-08T08:45:26.221Z,86.78
2017-12-08T08:47:54.804Z,85.57
2017-12-08T08:50:22.386Z,85.55
2017-12-08T08:52:49.940Z,84.89
2017-12-08T08:55:18.312Z,86.20
2017-12-08T08:57:46.713Z,85.51
2017-12-08T09:00:15.161Z,85.14
2017-12-08T09:02:42.712Z,84.93
2017-12-08T09:05:10.274Z,85.51
2017-12-08T09:07:37.854Z,84.12
2017-12-08T09:10:05.418Z,85.02
2017-12-08T09:12:32.984Z,85.99
2017-12-08T09:15:00.553Z,84.94
2017-12-08T09:17:29.113Z,85.55
2017-12-08T09:19:56.708Z,84.45
2017-12-08T09:22:24.265Z,83.73
2017-12-08T09:24:52.829Z,83.84
2017-12-08T09:27:21.201Z,82.64
2017-12-08T09:29:49.689Z,82.91
2017-12-08T09:32:18.110Z,84.21
2017-12-08T09:34:45.668Z,82.34
2017-12-08T09:37:14.077Z,84.84
2017-12-08T09:39:42.479Z,81.26
2017-12-08T09:42:10.946Z,81.13
2017-12-08T09:44:39.282Z,82.67
2017-12-08T09:47:06.833Z,80.14
2017-12-08T09:49:34.469Z,81.66
2017-12-08T09:52:02.104Z,82.06
2017-12-08T09:54:30.665Z,80.28
2017-12-08T09:56:59.201Z,80.82
2017-12-08T09:59:26.791Z,80.56
2017-12-08T10:01:54.424Z,81.18
2017-12-08T10:04:22.012Z,81.66
2017-12-08T10:06:49.564Z,83.23
2017-12-08T10:09:17.207Z,84.11
2017-12-08T10:11:44.837Z,79.90
2017-12-08T10:14:13.616Z,81.33
2017-12-08T10:16:42.210Z,81.99
2017-12-08T10:19:09.872Z,82.36
2017-12-08T10:21:37.486Z,81.63
2017-12-08T10:24:05.074Z,80.29
2017-12-08T10:26:33.620Z,78.81
2017-12-08T10:29:02.095Z,77.86
2017-12-08T10:31:30.717Z,77.53
2017-12-08T10:33:58.386Z,77.44
2017-12-08T10:36:25.980Z,76.76
2017-12-08T10:38:53.552Z,78.26
2017-12-08T10:41:21.730Z,77.24
2017-12-08T10:43:49.298Z,78.29
2017-12-08T10:46:17.693Z,75.22
2017-12-08T10:48:45.249Z,74.85
2017-12-08T10:51:13.629Z,74.51
2017-12-08T10:53:42.212Z,74.95
2017-12-08T10:56:09.873Z,75.79
2017-12-08T10:58:37.412Z,74.27
2017-12-08T11:01:04.993Z,74.08
2017-12-08T11:03:32.582Z,73.52
2017-12-08T11:06:00.124Z,73.64
2017-12-08T11:08:27.696Z,72.14
2017-12-08T11:10:55.867Z,72.22
2017-12-08T11:13:23.508Z,73.67
2017-12-08T11:15:51.153Z,71.84
2017-12-08T11:18:19.777Z,70.63
2017-12-08T11:20:47.497Z,72.29
2017-12-08T11:23:16.474Z,71.49
2017-12-08T11:25:44.077Z,72.26
2017-12-08T11:28:11.668Z,71.64
2017-12-08T11:30:39.276Z,71.77
2017-12-08T11:33:06.821Z,72.03
2017-12-08T11:35:34.640Z,72.09
2017-12-08T11:38:03.282Z,73.16
2017-12-08T11:40:30.840Z,71.69
2017-12-08T11:42:58.401Z,72.21
2017-12-08T11:45:26.004Z,72.80
2017-12-08T11:47:53.600Z,72.55
2017-12-08T11:50:21.184Z,72.82
2017-12-08T11:52:48.732Z,74.65
2017-12-08T11:55:16.325Z,71.18
2017-12-08T11:57:43.908Z,71.51
2017-12-08T12:00:11.448Z,72.12
2017-12-08T12:02:39.001Z,69.95
2017-12-08T12:05:06.553Z,69.02
2017-12-08T12:07:34.113Z,70.50
2017-12-08T12:10:01.664Z,68.69
2017-12-08T12:12:29.276Z,68.65
2017-12-08T12:14:58.612Z,70.60
2017-12-08T12:17:26.669Z,69.51
2017-12-08T12:19:55.408Z,71.83
2017-12-08T12:22:23.098Z,70.86
2017-12-08T12:24:50.692Z,69.53
2017-12-08T12:27:18.285Z,69.06
2017-12-08T12:29:50.633Z,68.74
2017-12-08T12:32:19.013Z,67.65
2017-12-08T12:34:47.520Z,68.43
2017-12-08T12:37:17.834Z,67.77
2017-12-08T12:39:45.410Z,66.67
2017-12-08T12:42:14.135Z,67.69
2017-12-08T12:44:42.781Z,66.74
2017-12-08T12:47:10.330Z,65.15
2017-12-08T12:49:40.888Z,65.57
2017-12-08T12:52:09.087Z,66.73
2017-12-08T12:54:37.727Z,65.21
2017-12-08T12:57:06.251Z,66.31
2017-12-08T12:59:33.838Z,65.44
2017-12-08T13:02:01.470Z,65.81
2017-12-08T13:04:29.122Z,65.12
2017-12-08T13:06:57.986Z,66.68
2017-12-08T13:09:25.554Z,65.49
2017-12-08T13:11:53.129Z,64.00
2017-12-08T13:14:20.710Z,64.49
2017-12-08T13:16:48.262Z,63.15
2017-12-08T13:19:15.808Z,63.20
2017-12-08T13:21:43.359Z,63.40
2017-12-08T13:24:11.226Z,63.79
2017-12-08T13:26:38.779Z,62.60
2017-12-08T13:29:07.260Z,63.45
2017-12-08T13:31:34.857Z,62.95
2017-12-08T13:34:02.399Z,64.44
2017-12-08T13:36:29.991Z,64.18
2017-12-08T13:38:57.547Z,64.63
2017-12-08T13:41:25.900Z,67.37
2017-12-08T13:43:53.484Z,68.48
2017-12-08T13:46:21.141Z,66.48
2017-12-08T13:48:48.710Z,66.80
2017-12-08T13:51:16.265Z,68.95
2017-12-08T13:53:55.604Z,68.11
2017-12-08T13:56:35.188Z,68.14
2017-12-08T13:59:02.737Z,68.53
2017-12-08T14:01:30.366Z,69.52
2017-12-08T14:03:57.916Z,71.33
2017-12-08T14:06:25.500Z,71.17
2017-12-08T14:08:53.047Z,71.44
2017-12-08T14:11:20.587Z,72.11
2017-12-08T14:13:48.136Z,71.89
2017-12-08T14:16:15.701Z,70.03
2017-12-08T14:18:43.572Z,68.55
2017-12-08T14:21:11.122Z,69.64
2017-12-08T14:23:38.669Z,68.57
2017-12-08T14:26:06.335Z,69.01
2017-12-08T14:28:33.944Z,69.93
2017-12-08T14:31:01.508Z,68.99
2017-12-08T14:33:29.052Z,69.41
2017-12-08T14:35:56.612Z,68.31
2017-12-08T14:38:24.150Z,67.21
2017-12-08T14:40:51.707Z,68.11
2017-12-08T14:43:19.276Z,68.30
2017-12-08T14:45:46.853Z,68.88
2017-12-08T14:48:14.403Z,68.67
2017-12-08T14:50:41.994Z,69.08
2017-12-08T14:53:09.580Z,69.83
2017-12-08T14:55:37.619Z,68.99
2017-12-08T14:58:12.246Z,69.70
2017-12-08T15:00:41.560Z,68.76
2017-12-08T15:03:09.315Z,68.29
2017-12-08T15:05:36.962Z,69.53
2017-12-08T15:08:04.640Z,69.96
2017-12-08T15:10:32.325Z,69.59
2017-12-08T15:12:59.970Z,71.45
2017-12-08T15:15:27.513Z,71.28
2017-12-08T15:17:55.056Z,71.86
2017-12-08T15:20:22.613Z,72.20
2017-12-08T15:22:50.217Z,73.72
2017-12-08T15:25:17.946Z,75.61
2017-12-08T15:27:45.596Z,74.88
2017-12-08T15:30:13.197Z,76.30
2017-12-08T15:32:41.004Z,72.93
2017-12-08T15:35:09.238Z,74.31
2017-12-08T15:37:37.728Z,73.60
2017-12-08T15:40:05.280Z,75.36
2017-12-08T15:42:33.613Z,75.32
2017-12-08T15:45:01.332Z,76.07
2017-12-08T15:47:28.988Z,75.52
2017-12-08T15:49:56.564Z,75.41
2017-12-08T15:52:24.117Z,74.06
2017-12-08T15:54:51.771Z,75.07
2017-12-08T15:57:19.438Z,75.56
2017-12-08T15:59:47.031Z,76.42
2017-12-08T16:02:14.623Z,76.83
2017-12-08T16:04:42.186Z,74.51
2017-12-08T16:07:09.790Z,75.19
2017-12-08T16:09:37.518Z,75.74
2017-12-08T16:12:05.072Z,75.14
2017-12-08T16:14:32.619Z,76.68
2017-12-08T16:17:00.237Z,75.53
2017-12-08T16:19:27.896Z,75.57
2017-12-08T16:21:55.441Z,76.31
2017-12-08T16:24:22.989Z,76.87
2017-12-08T16:26:50.580Z,75.68
2017-12-08T16:29:18.129Z,76.51
2017-12-08T16:31:45.683Z,75.45
2017-12-08T16:34:13.274Z,75.24
2017-12-08T16:36:40.841Z,80.08
2017-12-08T16:39:08.443Z,81.73
2017-12-08T16:41:36.003Z,84.58
2017-12-08T16:44:03.548Z,87.49
2017-12-08T16:46:31.168Z,88.88
2017-12-08T16:48:58.758Z,90.61
2017-12-08T16:51:26.313Z,90.63
2017-12-08T16:53:53.904Z,91.66
2017-12-08T16:56:21.467Z,91.76
2017-12-08T16:58:49.024Z,92.41
2017-12-08T17:01:16.591Z,92.37
2017-12-08T17:03:44.291Z,92.52
2017-12-08T17:06:12.663Z,92.37
2017-12-08T17:08:40.241Z,93.25
2017-12-08T17:11:07.793Z,93.67
2017-12-08T17:13:36.446Z,93.89
2017-12-08T17:16:04.956Z,93.77
2017-12-08T17:18:32.519Z,93.67
2017-12-08T17:21:00.084Z,93.77
2017-12-08T17:23:28.432Z,94.17
2017-12-08T17:25:56.023Z,94.12
2017-12-08T17:28:23.576Z,94.56
2017-12-08T17:30:51.139Z,94.84
2017-12-08T17:33:18.704Z,95.11
2017-12-08T17:35:46.337Z,95.22
2017-12-08T17:38:13.932Z,95.13
2017-12-08T17:40:41.486Z,95.74
2017-12-08T17:43:09.054Z,95.46
2017-12-08T17:45:36.712Z,95.99
2017-12-08T17:48:04.279Z,95.79
2017-12-08T17:50:32.005Z,95.38
2017-12-08T17:52:59.600Z,95.43
2017-12-08T17:55:28.291Z,94.81
2017-12-08T17:57:55.943Z,94.68
2017-12-08T18:00:23.683Z,94.61
2017-12-08T18:02:51.235Z,94.51
2017-12-08T18:05:18.832Z,94.59
2017-12-08T18:07:46.379Z,94.40
2017-12-08T18:10:13.929Z,94.50
2017-12-08T18:12:41.477Z,94.59
2017-12-08T18:15:09.028Z,93.84
2017-12-08T18:17:36.640Z,93.70
2017-12-08T18:20:04.192Z,93.47
2017-12-08T18:22:31.752Z,93.22
2017-12-08T18:24:59.305Z,93.16
2017-12-08T18:27:26.897Z,93.65
2017-12-08T18:29:54.453Z,93.67
2017-12-08T18:32:22.023Z,94.11
2017-12-08T18:34:49.595Z,93.72
2017-12-08T18:37:18.007Z,93.61
2017-12-08T18:39:45.575Z,93.34
2017-12-08T18:42:13.765Z,93.07
2017-12-08T18:44:41.369Z,93.02
2017-12-08T18:47:08.922Z,92.21
2017-12-08T18:49:36.472Z,91.97
2017-12-08T18:52:04.716Z,91.58
2017-12-08T18:54:32.311Z,93.97
2017-12-08T18:56:59.977Z,92.65
2017-12-08T18:59:27.626Z,91.74
2017-12-08T19:01:56.236Z,91.87
2017-12-08T19:04:24.591Z,93.29
2017-12-08T19:06:52.973Z,91.73
2017-12-08T19:09:21.456Z,91.99
2017-12-08T19:11:49.116Z,92.09
2017-12-08T19:14:16.665Z,92.28
2017-12-08T19:16:44.236Z,92.77
2017-12-08T19:19:12.621Z,92.85
2017-12-08T19:21:41.228Z,92.63
2017-12-08T19:24:09.724Z,92.46
2017-12-08T19:26:37.283Z,92.67
2017-12-08T19:29:04.837Z,93.25
2017-12-08T19:31:32.464Z,93.77
2017-12-08T19:34:00.024Z,94.01
2017-12-08T19:36:27.690Z,93.48
2017-12-08T19:38:56.316Z,93.04
2017-12-08T19:41:23.864Z,93.95
2017-12-08T19:43:51.475Z,93.51
2017-12-08T19:46:19.029Z,93.96
2017-12-08T19:48:46.624Z,94.24
2017-12-08T19:51:14.182Z,94.33
2017-12-08T19:53:41.841Z,93.68
2017-12-08T19:56:09.473Z,93.88
2017-12-08T19:58:37.135Z,93.86
2017-12-08T20:01:04.736Z,93.60
2017-12-08T20:03:32.341Z,93.77
2017-12-08T20:06:00.938Z,93.74
2017-12-08T20:08:28.499Z,93.33
2017-12-08T20:10:56.102Z,93.61
2017-12-08T20:13:23.665Z,93.97
2017-12-08T20:15:51.220Z,93.41
2017-12-08T20:18:18.890Z,93.61
2017-12-08T20:20:46.483Z,93.77
2017-12-08T20:23:14.103Z,93.38
2017-12-08T20:25:41.662Z,93.85
2017-12-08T20:28:09.208Z,93.48
2017-12-08T20:30:36.764Z,93.40
2017-12-08T20:33:04.331Z,93.33
2017-12-08T20:35:31.885Z,93.17
2017-12-08T20:37:59.443Z,93.16
2017-12-08T20:40:27.132Z,92.99
2017-12-08T20:42:54.687Z,93.21
2017-12-08T20:45:22.276Z,93.32
2017-12-08T20:47:49.840Z,93.46
2017-12-08T20:50:17.404Z,93.05
2017-12-08T20:52:45.008Z,92.94
2017-12-08T20:55:12.577Z,93.58
2017-12-08T20:57:40.160Z,93.60
2017-12-08T21:00:07.824Z,93.11
2017-12-08T21:02:35.384Z,93.39
2017-12-08T21:05:03.065Z,92.53
2017-12-08T21:07:30.620Z,92.56
2017-12-08T21:09:59.091Z,92.07
2017-12-08T21:12:27.440Z,92.61
2017-12-08T21:14:55.033Z,92.31
2017-12-08T21:17:22.592Z,92.35
2017-12-08T21:19:50.148Z,92.69
2017-12-08T21:22:17.780Z,91.16
2017-12-08T21:24:45.380Z,91.09
2017-12-08T21:27:13.036Z,90.95
2017-12-08T21:29:40.662Z,90.48
2017-12-08T21:32:08.260Z,90.82
2017-12-08T21:34:36.644Z,91.43
2017-12-08T21:37:05.030Z,90.78
2017-12-08T21:39:33.406Z,91.05
2017-12-08T21:42:01.523Z,90.81
2017-12-08T21:44:29.136Z,91.58
2017-12-08T21:46:56.696Z,90.51
2017-12-08T21:49:25.183Z,90.76
2017-12-08T21:51:53.455Z,89.97
2017-12-08T21:54:21.858Z,89.00
2017-12-08T21:56:50.118Z,89.40
2017-12-08T21:59:18.557Z,89.49
2017-12-08T22:01:46.124Z,89.61
2017-12-08T22:04:13.683Z,89.08
2017-12-08T22:06:41.379Z,88.86
2017-12-08T22:09:09.045Z,89.28
2017-12-08T22:11:36.706Z,88.67
2017-12-08T22:14:04.260Z,88.53
2017-12-08T22:16:31.808Z,89.03
2017-12-08T22:18:59.398Z,88.36
2017-12-08T22:21:26.976Z,88.32
2017-12-08T22:23:54.537Z,88.25
2017-12-08T22:26:22.138Z,87.50
2017-12-08T22:28:50.929Z,87.82
2017-12-08T22:31:18.522Z,88.53
2017-12-08T22:34:01.108Z,88.92
2017-12-08T22:36:33.614Z,88.93
2017-12-08T22:39:03.301Z,88.64
2017-12-08T22:41:30.886Z,89.01
2017-12-08T22:43:59.255Z,88.49
2017-12-08T22:46:27.640Z,88.38
2017-12-08T22:48:55.195Z,88.96
2017-12-08T22:51:22.968Z,88.48
2017-12-08T22:53:50.753Z,89.44
2017-12-08T22:56:18.305Z,89.84
2017-12-08T22:58:45.861Z,89.46
2017-12-08T23:01:13.532Z,90.28
2017-12-08T23:03:41.177Z,90.51
2017-12-08T23:06:08.740Z,90.20
2017-12-08T23:08:36.413Z,90.55
2017-12-08T23:11:04.077Z,91.33
2017-12-08T23:13:31.693Z,90.95
2017-12-08T23:15:59.285Z,91.29
2017-12-08T23:18:26.925Z,91.50
2017-12-08T23:20:54.516Z,91.61
2017-12-08T23:23:22.077Z,91.53
2017-12-08T23:25:49.740Z,91.80
2017-12-08T23:28:17.345Z,91.93
2017-12-08T23:30:45.010Z,92.27
2017-12-08T23:33:12.578Z,92.02
2017-12-08T23:35:40.197Z,91.54
2017-12-08T23:38:07.772Z,91.79
2017-12-08T23:40:35.408Z,92.75
2017-12-08T23:43:03.073Z,92.61
2017-12-08T23:45:30.736Z,92.76
2017-12-08T23:47:58.336Z,93.07
2017-12-08T23:50:25.943Z,93.35
2017-12-08T23:52:53.517Z,93.64
2017-12-08T23:55:21.079Z,92.73
2017-12-08T23:57:48.643Z,92.27
